X  Close Metar Aviation Weather Data     EBBR Brussels Airport
Temperature
10°C Temperature
8°C Dewpoint
88% Humidity



Wind
8 KM/H
5 MPH
2 M/S
4 KTS



200°
SSW
Current Conditions

Partly Cloudy Partly Cloudy
Pressure 1011.92 (hPa) - 29.88 (inHg)
Visibility 6.2 (mile) - 10 (km)
Airport
Airport-code EBBR

Location: Brussels Airport
Distance: 14 (km)

Metar:
EBBR 120550Z 20004KT 9999 FEW040 10/08 Q1012 NOSIG

Time: 05-12-2021 07:50 CEST